createdAt,value
2018-06-21T00:01:41.485Z,45.97
2018-06-21T00:04:08.793Z,52.60
2018-06-21T00:06:36.065Z,47.30
2018-06-21T00:09:04.969Z,41.00
2018-06-21T00:11:32.277Z,45.30
2018-06-21T00:13:59.660Z,43.60
2018-06-21T00:16:26.944Z,48.40
2018-06-21T00:18:54.209Z,54.70
2018-06-21T00:21:21.630Z,46.87
2018-06-21T00:23:48.909Z,53.73
2018-06-21T00:26:16.185Z,45.77
2018-06-21T00:28:43.477Z,41.43
2018-06-21T00:31:10.773Z,43.27
2018-06-21T00:33:38.049Z,51.70
2018-06-21T00:36:05.322Z,55.80
2018-06-21T00:38:32.604Z,54.20
2018-06-21T00:40:59.873Z,47.83
2018-06-21T00:43:27.137Z,44.17
2018-06-21T00:45:54.418Z,52.13
2018-06-21T00:48:21.722Z,43.43
2018-06-21T00:50:49.001Z,43.20
2018-06-21T00:53:16.295Z,46.70
2018-06-21T00:55:49.278Z,50.00
2018-06-21T00:58:16.561Z,51.63
2018-06-21T01:00:43.840Z,46.53
2018-06-21T01:03:11.120Z,41.40
2018-06-21T01:05:38.418Z,45.47
2018-06-21T01:08:05.697Z,45.80
2018-06-21T01:10:32.981Z,46.77
2018-06-21T01:13:00.281Z,49.47
2018-06-21T01:15:27.561Z,50.53
2018-06-21T01:17:54.833Z,45.40
2018-06-21T01:20:22.132Z,50.57
2018-06-21T01:22:49.665Z,46.47
2018-06-21T01:25:17.021Z,52.20
2018-06-21T01:27:44.288Z,48.43
2018-06-21T01:30:11.577Z,50.10
2018-06-21T01:32:38.889Z,48.67
2018-06-21T01:35:06.185Z,50.83
2018-06-21T01:37:33.461Z,51.90
2018-06-21T01:40:00.754Z,63.43
2018-06-21T01:42:28.029Z,46.80
2018-06-21T01:44:55.449Z,53.13
2018-06-21T01:47:22.741Z,45.53
2018-06-21T01:49:50.039Z,55.63
2018-06-21T01:52:17.310Z,46.83
2018-06-21T01:54:44.620Z,50.63
2018-06-21T01:57:11.918Z,57.67
2018-06-21T01:59:39.189Z,45.00
2018-06-21T02:02:06.529Z,49.67
2018-06-21T02:04:33.797Z,50.43
2018-06-21T02:07:01.169Z,49.90
2018-06-21T02:09:28.428Z,49.43
2018-06-21T02:11:55.689Z,53.30
2018-06-21T02:14:22.940Z,53.17
2018-06-21T02:16:50.232Z,52.17
2018-06-21T02:19:17.521Z,50.00
2018-06-21T02:21:44.813Z,54.20
2018-06-21T02:24:12.109Z,50.13
2018-06-21T02:26:39.479Z,57.23
2018-06-21T02:29:06.753Z,46.17
2018-06-21T02:31:34.024Z,52.57
2018-06-21T02:34:01.319Z,52.13
2018-06-21T02:36:28.598Z,47.77
2018-06-21T02:38:55.886Z,44.40
2018-06-21T02:41:23.201Z,51.03
2018-06-21T02:43:50.493Z,43.63
2018-06-21T02:46:17.761Z,44.70
2018-06-21T02:48:45.073Z,34.57
2018-06-21T02:51:12.361Z,30.50
2018-06-21T02:53:39.641Z,32.53
2018-06-21T02:56:06.926Z,28.63
2018-06-21T02:58:34.214Z,20.43
2018-06-21T03:01:01.498Z,21.30
2018-06-21T03:03:28.813Z,15.40
2018-06-21T03:05:56.077Z,17.20
2018-06-21T03:08:23.344Z,19.27
2018-06-21T03:10:50.622Z,11.57
2018-06-21T03:13:17.889Z,13.73
2018-06-21T03:15:45.194Z,9.57
2018-06-21T03:18:12.458Z,8.13
2018-06-21T03:20:39.721Z,7.97
2018-06-21T03:23:07.000Z,5.73
2018-06-21T03:25:34.333Z,3.93
2018-06-21T03:28:01.621Z,3.83
2018-06-21T03:30:28.872Z,6.90
2018-06-21T03:32:56.145Z,3.70
2018-06-21T03:35:23.488Z,3.23
2018-06-21T03:37:50.773Z,5.23
2018-06-21T03:40:18.081Z,3.43
2018-06-21T03:42:45.368Z,4.03
2018-06-21T03:45:12.697Z,7.43
2018-06-21T03:47:39.994Z,4.50
2018-06-21T03:50:07.293Z,3.90
2018-06-21T03:52:34.625Z,4.90
2018-06-21T03:55:01.922Z,5.33
2018-06-21T03:57:29.209Z,7.20
2018-06-21T03:59:56.481Z,5.60
2018-06-21T04:02:23.757Z,6.67
2018-06-21T04:04:51.033Z,5.57
2018-06-21T04:07:18.315Z,5.50
2018-06-21T04:09:45.620Z,6.70
2018-06-21T04:12:12.992Z,6.53
2018-06-21T04:14:40.276Z,5.23
2018-06-21T04:17:07.568Z,5.40
2018-06-21T04:19:34.871Z,6.33
2018-06-21T04:22:02.175Z,7.97
2018-06-21T04:24:29.445Z,5.70
2018-06-21T04:26:56.817Z,6.67
2018-06-21T04:29:24.212Z,4.60
2018-06-21T04:31:51.528Z,6.17
2018-06-21T04:34:18.824Z,6.77
2018-06-21T04:36:46.126Z,4.70
2018-06-21T04:39:13.441Z,4.80
2018-06-21T04:41:40.719Z,11.17
2018-06-21T04:44:08.029Z,8.17
2018-06-21T04:46:35.333Z,3.50
2018-06-21T04:49:02.646Z,5.20
2018-06-21T04:51:29.958Z,3.77
2018-06-21T04:53:57.401Z,6.00
2018-06-21T04:56:24.678Z,3.90
2018-06-21T04:58:52.081Z,6.73
2018-06-21T05:01:19.366Z,5.53
2018-06-21T05:03:46.665Z,4.37
2018-06-21T05:06:13.930Z,13.13
2018-06-21T05:08:41.212Z,4.93
2018-06-21T05:11:08.520Z,10.47
2018-06-21T05:13:35.937Z,5.90
2018-06-21T05:16:03.209Z,7.13
2018-06-21T05:18:30.562Z,9.60
2018-06-21T05:20:57.874Z,6.77
2018-06-21T05:23:25.140Z,4.07
2018-06-21T05:25:52.417Z,6.50
2018-06-21T05:28:19.696Z,6.40
2018-06-21T05:30:47.185Z,11.00
2018-06-21T05:33:14.464Z,8.00
2018-06-21T05:35:41.774Z,4.87
2018-06-21T05:38:09.038Z,8.60
2018-06-21T05:40:36.813Z,4.77
2018-06-21T05:43:04.576Z,5.30
2018-06-21T05:45:32.354Z,8.43
2018-06-21T05:48:00.724Z,6.50
2018-06-21T05:50:29.006Z,7.97
2018-06-21T05:52:57.201Z,5.87
2018-06-21T05:55:24.492Z,10.33
2018-06-21T05:57:51.801Z,5.27
2018-06-21T06:00:19.073Z,11.50
2018-06-21T06:02:46.365Z,9.83
2018-06-21T06:05:13.725Z,7.33
2018-06-21T06:07:41.001Z,5.33
2018-06-21T06:10:08.332Z,6.70
2018-06-21T06:12:35.612Z,5.03
2018-06-21T06:15:03.530Z,13.23
2018-06-21T06:17:31.090Z,8.27
2018-06-21T06:19:58.817Z,5.83
2018-06-21T06:22:26.222Z,5.00
2018-06-21T06:24:53.558Z,12.00
2018-06-21T06:27:20.837Z,7.50
2018-06-21T06:29:48.256Z,7.73
2018-06-21T06:32:15.538Z,22.40
2018-06-21T06:34:42.859Z,12.07
2018-06-21T06:37:10.181Z,9.53
2018-06-21T06:39:37.448Z,10.43
2018-06-21T06:42:04.750Z,9.87
2018-06-21T06:44:32.066Z,6.00
2018-06-21T06:46:59.341Z,13.80
2018-06-21T06:49:26.813Z,9.13
2018-06-21T06:51:54.082Z,15.10
2018-06-21T06:54:21.372Z,10.17
2018-06-21T06:56:48.621Z,17.10
2018-06-21T06:59:15.912Z,9.30
2018-06-21T07:01:43.181Z,8.30
2018-06-21T07:04:10.628Z,4.97
2018-06-21T07:06:37.929Z,5.23
2018-06-21T07:09:06.429Z,9.27
2018-06-21T07:11:33.725Z,9.83
2018-06-21T07:14:00.981Z,8.83
2018-06-21T07:16:28.261Z,9.40
2018-06-21T07:18:55.557Z,13.03
2018-06-21T07:21:22.825Z,3.23
2018-06-21T07:23:50.373Z,8.03
2018-06-21T07:26:17.654Z,7.03
2018-06-21T07:28:44.941Z,17.10
2018-06-21T07:31:12.616Z,9.30
2018-06-21T07:33:39.965Z,6.23
2018-06-21T07:36:07.222Z,7.33
2018-06-21T07:38:34.505Z,15.40
2018-06-21T07:41:01.785Z,6.53
2018-06-21T07:43:29.089Z,9.40
2018-06-21T07:45:56.407Z,6.90
2018-06-21T07:48:23.698Z,4.30
2018-06-21T07:50:50.962Z,8.93
2018-06-21T07:53:18.234Z,7.30
2018-06-21T07:55:45.510Z,7.83
2018-06-21T07:58:12.813Z,8.60
2018-06-21T08:00:40.085Z,5.70
2018-06-21T08:03:07.344Z,5.87
2018-06-21T08:05:34.622Z,10.93
2018-06-21T08:08:01.894Z,6.57
2018-06-21T08:10:29.169Z,5.20
2018-06-21T08:12:56.496Z,9.03
2018-06-21T08:15:23.734Z,6.07
2018-06-21T08:17:51.061Z,6.07
2018-06-21T08:20:18.337Z,6.20
2018-06-21T08:22:45.627Z,8.10
2018-06-21T08:25:12.937Z,7.23
2018-06-21T08:27:40.248Z,5.60
2018-06-21T08:30:07.566Z,12.27
2018-06-21T08:32:35.077Z,6.10
2018-06-21T08:35:02.358Z,6.73
2018-06-21T08:37:29.697Z,3.10
2018-06-21T08:39:56.981Z,3.03
2018-06-21T08:42:24.268Z,5.80
2018-06-21T08:44:51.581Z,4.60
2018-06-21T08:47:18.957Z,9.70
2018-06-21T08:49:46.273Z,8.77
2018-06-21T08:52:13.577Z,10.40
2018-06-21T08:54:40.865Z,5.43
2018-06-21T08:57:08.148Z,5.90
2018-06-21T08:59:35.422Z,5.57
2018-06-21T09:02:02.737Z,6.80
2018-06-21T09:04:30.017Z,9.23
2018-06-21T09:06:57.625Z,9.20
2018-06-21T09:09:25.117Z,7.20
2018-06-21T09:11:52.540Z,8.87
2018-06-21T09:14:19.837Z,2.20
2018-06-21T09:16:47.142Z,7.23
2018-06-21T09:19:14.432Z,6.37
2018-06-21T09:21:41.694Z,5.33
2018-06-21T09:24:08.952Z,5.00
2018-06-21T09:26:36.257Z,5.20
2018-06-21T09:29:03.761Z,10.10
2018-06-21T09:31:31.037Z,8.40
2018-06-21T09:33:58.535Z,3.83
2018-06-21T09:36:25.852Z,7.27
2018-06-21T09:38:58.768Z,15.17
2018-06-21T09:42:35.615Z,12.70
2018-06-21T09:45:02.951Z,7.63
2018-06-21T09:47:35.989Z,8.80
2018-06-21T09:50:03.285Z,15.70
2018-06-21T09:52:31.512Z,13.33
2018-06-21T09:54:58.769Z,3.93
2018-06-21T09:57:26.076Z,7.13
2018-06-21T09:59:53.380Z,5.67
2018-06-21T10:02:20.692Z,5.03
2018-06-21T10:04:47.961Z,8.97
2018-06-21T10:07:15.359Z,10.40
2018-06-21T10:09:42.877Z,9.63
2018-06-21T10:12:10.185Z,3.30
2018-06-21T10:14:37.461Z,4.93
2018-06-21T10:17:07.421Z,12.20
2018-06-21T10:19:34.856Z,2.80
2018-06-21T10:22:02.157Z,1.87
2018-06-21T10:24:29.457Z,6.23
2018-06-21T10:26:56.764Z,3.73
2018-06-21T10:29:24.045Z,1.17
2018-06-21T10:31:51.320Z,4.30
2018-06-21T10:34:18.762Z,1.33
2018-06-21T10:36:46.052Z,2.30
2018-06-21T10:39:13.369Z,4.00
2018-06-21T10:41:40.810Z,3.47
2018-06-21T10:44:08.102Z,3.10
2018-06-21T10:46:35.406Z,4.30
2018-06-21T10:49:02.749Z,4.47
2018-06-21T10:51:30.038Z,3.60
2018-06-21T10:53:57.312Z,3.53
2018-06-21T10:56:24.613Z,9.23
2018-06-21T10:58:51.882Z,5.20
2018-06-21T11:01:19.282Z,3.43
2018-06-21T11:03:46.585Z,6.60
2018-06-21T11:06:13.865Z,9.37
2018-06-21T11:08:41.209Z,8.77
2018-06-21T11:11:08.473Z,8.53
2018-06-21T11:13:35.769Z,12.77
2018-06-21T11:16:03.057Z,10.13
2018-06-21T11:18:30.336Z,7.17
2018-06-21T11:20:57.620Z,5.93
2018-06-21T11:23:24.901Z,7.97
2018-06-21T11:25:52.186Z,7.93
2018-06-21T11:28:19.689Z,13.57
2018-06-21T11:30:47.110Z,11.63
2018-06-21T11:33:14.410Z,7.80
2018-06-21T11:35:42.052Z,8.67
2018-06-21T11:38:09.400Z,8.07
2018-06-21T11:40:36.753Z,3.30
2018-06-21T11:43:04.110Z,3.93
2018-06-21T11:45:31.405Z,2.13
2018-06-21T11:47:58.695Z,6.27
2018-06-21T11:50:25.960Z,3.60
2018-06-21T11:52:53.247Z,1.40
2018-06-21T11:55:20.573Z,5.17
2018-06-21T11:57:47.932Z,7.30
2018-06-21T12:00:15.209Z,8.27
2018-06-21T12:02:42.508Z,3.20
2018-06-21T12:05:09.831Z,1.87
2018-06-21T12:07:37.148Z,5.93
2018-06-21T12:10:04.449Z,5.73
2018-06-21T12:12:31.757Z,6.10
2018-06-21T12:14:59.048Z,2.90
2018-06-21T12:17:26.397Z,5.50
2018-06-21T12:19:53.722Z,4.40
2018-06-21T12:22:21.013Z,7.30
2018-06-21T12:24:48.300Z,5.80
2018-06-21T12:27:15.651Z,16.30
2018-06-21T12:29:42.925Z,4.70
2018-06-21T12:32:10.210Z,6.70
2018-06-21T12:34:38.138Z,6.60
2018-06-21T12:37:05.709Z,5.77
2018-06-21T12:39:32.972Z,4.20
2018-06-21T12:42:00.281Z,5.23
2018-06-21T12:44:27.550Z,7.83
2018-06-21T12:46:54.824Z,10.97
2018-06-21T12:49:22.213Z,1.97
2018-06-21T12:51:49.493Z,2.20
2018-06-21T12:54:16.788Z,5.90
2018-06-21T12:56:44.093Z,7.17
2018-06-21T12:59:11.403Z,1.67
2018-06-21T13:01:38.672Z,2.70
2018-06-21T13:04:05.977Z,0.70
2018-06-21T13:06:33.269Z,1.73
2018-06-21T13:09:06.205Z,2.87
2018-06-21T13:11:39.305Z,6.57
2018-06-21T13:14:12.458Z,6.20
2018-06-21T13:16:39.770Z,0.93
2018-06-21T13:19:07.069Z,1.47
2018-06-21T13:21:34.364Z,1.10
2018-06-21T13:24:01.668Z,1.97
2018-06-21T13:26:28.938Z,1.17
2018-06-21T13:28:56.224Z,1.10
2018-06-21T13:31:23.489Z,3.13
2018-06-21T13:33:50.870Z,1.27
2018-06-21T13:36:18.164Z,4.63
2018-06-21T13:38:45.644Z,3.13
2018-06-21T13:41:12.909Z,5.70
2018-06-21T13:43:40.240Z,1.43
2018-06-21T13:46:07.505Z,2.13
2018-06-21T13:48:34.805Z,1.40
2018-06-21T13:51:02.125Z,7.70
2018-06-21T13:53:29.418Z,1.37
2018-06-21T13:55:56.698Z,2.13
2018-06-21T13:58:24.005Z,1.53
2018-06-21T14:00:51.296Z,1.47
2018-06-21T14:03:18.665Z,4.50
2018-06-21T14:05:46.005Z,1.00
2018-06-21T14:08:13.330Z,1.60
2018-06-21T14:10:40.564Z,1.70
2018-06-21T14:13:07.848Z,1.43
2018-06-21T14:15:35.172Z,4.53
2018-06-21T14:18:02.455Z,0.73
2018-06-21T14:20:29.750Z,5.17
2018-06-21T14:22:57.022Z,3.93
2018-06-21T14:25:24.301Z,2.73
2018-06-21T14:27:51.605Z,6.33
2018-06-21T14:30:18.893Z,2.40
2018-06-21T14:32:46.197Z,4.77
2018-06-21T14:35:13.533Z,5.90
2018-06-21T14:37:40.835Z,3.27
2018-06-21T14:40:08.337Z,2.23
2018-06-21T14:42:35.611Z,1.73
2018-06-21T14:45:02.898Z,0.83
2018-06-21T14:47:30.189Z,1.73
2018-06-21T14:49:57.471Z,4.53
2018-06-21T14:52:24.789Z,5.40
2018-06-21T14:54:52.098Z,3.67
2018-06-21T14:57:19.421Z,4.10
2018-06-21T14:59:46.713Z,1.20
2018-06-21T15:02:13.996Z,1.20
2018-06-21T15:04:41.284Z,2.23
2018-06-21T15:07:08.565Z,0.90
2018-06-21T15:09:35.839Z,3.80
2018-06-21T15:12:03.125Z,1.10
2018-06-21T15:14:30.474Z,3.70
2018-06-21T15:16:57.721Z,1.53
2018-06-21T15:19:24.994Z,1.13
2018-06-21T15:21:52.318Z,2.20
2018-06-21T15:24:19.585Z,2.43
2018-06-21T15:26:46.897Z,0.60
2018-06-21T15:29:14.152Z,1.60
2018-06-21T15:31:41.432Z,1.10
2018-06-21T15:34:08.733Z,1.60
2018-06-21T15:36:36.002Z,1.83
2018-06-21T15:39:09.156Z,0.90
2018-06-21T15:41:36.673Z,1.47
2018-06-21T15:44:03.957Z,2.10
2018-06-21T15:46:31.239Z,1.47
2018-06-21T15:48:58.516Z,1.07
2018-06-21T15:51:25.782Z,1.53
2018-06-21T15:53:53.085Z,5.60
2018-06-21T15:56:20.373Z,4.20
2018-06-21T15:58:47.638Z,4.00
2018-06-21T16:01:14.950Z,4.17
2018-06-21T16:03:42.245Z,3.83
2018-06-21T16:06:09.557Z,2.10
2018-06-21T16:08:36.842Z,1.93
2018-06-21T16:11:04.148Z,2.70
2018-06-21T16:13:31.410Z,3.73
2018-06-21T16:15:58.699Z,2.03
2018-06-21T16:18:26.029Z,4.77
2018-06-21T16:20:53.325Z,5.33
2018-06-21T16:23:20.600Z,3.37
2018-06-21T16:25:47.869Z,4.67
2018-06-21T16:28:15.151Z,5.67
2018-06-21T16:30:42.569Z,4.30
2018-06-21T16:33:09.857Z,3.10
2018-06-21T16:35:37.149Z,2.10
2018-06-21T16:38:04.518Z,1.13
2018-06-21T16:40:31.812Z,2.80
2018-06-21T16:42:59.255Z,6.23
2018-06-21T16:45:26.810Z,4.50
2018-06-21T16:47:54.129Z,5.30
2018-06-21T16:50:21.441Z,5.70
2018-06-21T16:52:48.717Z,2.90
2018-06-21T16:55:16.063Z,10.37
2018-06-21T16:57:43.387Z,2.93
2018-06-21T17:00:10.677Z,8.13
2018-06-21T17:02:38.190Z,4.03
2018-06-21T17:05:05.431Z,8.03
2018-06-21T17:07:32.725Z,5.40
2018-06-21T17:09:59.994Z,3.47
2018-06-21T17:12:27.781Z,5.23
2018-06-21T17:14:55.114Z,9.00
2018-06-21T17:17:22.467Z,4.67
2018-06-21T17:19:49.769Z,6.33
2018-06-21T17:22:17.072Z,7.43
2018-06-21T17:24:44.386Z,5.50
2018-06-21T17:27:11.660Z,4.33
2018-06-21T17:29:38.948Z,4.77
2018-06-21T17:32:06.229Z,5.47
2018-06-21T17:34:33.573Z,3.93
2018-06-21T17:37:00.862Z,1.80
2018-06-21T17:39:28.154Z,2.53
2018-06-21T17:41:55.485Z,4.63
2018-06-21T17:44:22.958Z,5.97
2018-06-21T17:46:50.226Z,4.77
2018-06-21T17:49:17.505Z,11.10
2018-06-21T17:51:44.789Z,10.47
2018-06-21T17:54:12.855Z,5.47
2018-06-21T17:56:40.142Z,5.80
2018-06-21T17:59:07.689Z,11.17
2018-06-21T18:01:35.133Z,6.63
2018-06-21T18:04:02.705Z,6.30
2018-06-21T18:06:30.013Z,6.20
2018-06-21T18:08:57.343Z,8.60
2018-06-21T18:11:24.661Z,8.83
2018-06-21T18:13:51.989Z,8.73
2018-06-21T18:16:19.305Z,10.20
2018-06-21T18:18:46.653Z,10.27
2018-06-21T18:21:13.957Z,6.40
2018-06-21T18:23:41.286Z,7.70
2018-06-21T18:26:08.600Z,12.70
2018-06-21T18:28:35.881Z,15.87
2018-06-21T18:31:03.153Z,8.00
2018-06-21T18:33:30.468Z,7.07
2018-06-21T18:35:57.777Z,4.57
2018-06-21T18:38:25.057Z,8.40
2018-06-21T18:40:52.393Z,6.10
2018-06-21T18:43:19.722Z,6.73
2018-06-21T18:45:47.201Z,7.13
2018-06-21T18:48:14.489Z,10.90
2018-06-21T18:50:41.825Z,6.03
2018-06-21T18:53:09.097Z,3.83
2018-06-21T18:55:36.391Z,3.57
2018-06-21T19:00:36.269Z,9.33
2018-06-21T19:03:03.557Z,6.17
2018-06-21T19:05:30.865Z,4.20
2018-06-21T19:08:03.776Z,7.47
2018-06-21T19:10:36.850Z,7.27
2018-06-21T19:13:04.113Z,9.00
2018-06-21T19:15:31.388Z,3.47
2018-06-21T19:17:58.711Z,3.03
2018-06-21T19:20:26.001Z,6.17
2018-06-21T19:22:53.268Z,6.83
2018-06-21T19:25:20.566Z,5.43
2018-06-21T19:27:47.923Z,7.97
2018-06-21T19:30:15.213Z,5.90
2018-06-21T19:32:42.569Z,4.93
2018-06-21T19:35:09.893Z,5.17
2018-06-21T19:37:37.152Z,2.20
2018-06-21T19:40:04.581Z,6.63
2018-06-21T19:42:31.856Z,5.60
2018-06-21T19:44:59.145Z,7.20
2018-06-21T19:47:26.673Z,4.67
2018-06-21T19:49:53.997Z,10.97
2018-06-21T19:52:21.293Z,8.07
2018-06-21T19:54:48.570Z,12.20
2018-06-21T19:57:15.855Z,13.37
2018-06-21T19:59:43.138Z,5.50
2018-06-21T20:02:10.439Z,9.37
2018-06-21T20:04:37.732Z,3.73
2018-06-21T20:07:05.028Z,12.00
2018-06-21T20:09:32.323Z,4.97
2018-06-21T20:11:59.605Z,11.23
2018-06-21T20:14:26.889Z,8.70
2018-06-21T20:16:54.201Z,6.93
2018-06-21T20:19:21.469Z,6.80
2018-06-21T20:21:48.740Z,16.50
2018-06-21T20:24:16.087Z,24.43
2018-06-21T20:26:43.386Z,4.60
2018-06-21T20:29:16.368Z,12.47
2018-06-21T20:31:43.661Z,11.90
2018-06-21T20:34:10.986Z,11.00
2018-06-21T20:36:38.277Z,13.83
2018-06-21T20:39:05.889Z,7.07
2018-06-21T20:41:33.208Z,8.90
2018-06-21T20:44:00.571Z,16.03
2018-06-21T20:46:27.853Z,8.60
2018-06-21T20:48:55.410Z,4.57
2018-06-21T20:51:22.685Z,9.57
2018-06-21T20:53:49.996Z,6.83
2018-06-21T20:56:17.300Z,9.70
2018-06-21T20:58:44.573Z,11.93
2018-06-21T21:01:11.833Z,13.10
2018-06-21T21:03:39.186Z,14.93
2018-06-21T21:06:06.420Z,9.17
2018-06-21T21:08:33.697Z,9.83
2018-06-21T21:11:00.989Z,11.10
2018-06-21T21:13:28.248Z,10.27
2018-06-21T21:15:55.525Z,12.60
2018-06-21T21:18:22.830Z,15.83
2018-06-21T21:20:50.345Z,7.23
2018-06-21T21:23:17.634Z,8.33
2018-06-21T21:25:44.894Z,10.73
2018-06-21T21:28:12.168Z,15.10
2018-06-21T21:30:39.514Z,10.87
2018-06-21T21:33:06.828Z,13.83
2018-06-21T21:35:34.092Z,21.40
2018-06-21T21:38:01.394Z,8.73
2018-06-21T21:40:28.647Z,12.77
2018-06-21T21:42:55.903Z,7.87
2018-06-21T21:45:23.159Z,18.40
2018-06-21T21:47:50.437Z,17.40
2018-06-21T21:50:17.964Z,7.87
2018-06-21T21:52:45.271Z,10.83
2018-06-21T21:55:12.513Z,10.53
2018-06-21T21:57:39.773Z,13.67
2018-06-21T22:00:11.655Z,13.33
2018-06-21T22:02:38.918Z,12.90
2018-06-21T22:05:06.173Z,15.93
2018-06-21T22:07:33.474Z,11.83
2018-06-21T22:10:00.733Z,7.00
2018-06-21T22:12:27.988Z,11.90
2018-06-21T22:14:55.247Z,13.33
2018-06-21T22:17:22.534Z,10.33
2018-06-21T22:19:49.793Z,16.43
2018-06-21T22:22:17.038Z,9.80
2018-06-21T22:24:44.305Z,6.40
2018-06-21T22:27:11.577Z,6.57
2018-06-21T22:29:38.860Z,8.23
2018-06-21T22:32:06.111Z,9.17
2018-06-21T22:34:33.392Z,12.23
2018-06-21T22:37:00.660Z,8.63
2018-06-21T22:39:27.920Z,12.50
2018-06-21T22:41:55.197Z,8.93
2018-06-21T22:44:22.461Z,6.37
2018-06-21T22:46:49.741Z,7.07
2018-06-21T22:49:17.124Z,5.60
2018-06-21T22:51:44.540Z,6.77
2018-06-21T22:54:11.796Z,8.80
2018-06-21T22:56:39.086Z,3.00
2018-06-21T22:59:06.365Z,11.43
2018-06-21T23:01:33.644Z,7.97
2018-06-21T23:04:00.897Z,4.43
2018-06-21T23:06:28.192Z,13.50
2018-06-21T23:08:55.454Z,10.33
2018-06-21T23:11:22.725Z,5.30
2018-06-21T23:13:49.999Z,4.87
2018-06-21T23:16:17.262Z,7.00
2018-06-21T23:18:50.319Z,4.30
2018-06-21T23:21:17.584Z,8.10
2018-06-21T23:23:44.849Z,12.83
2018-06-21T23:26:12.105Z,13.93
2018-06-21T23:28:39.369Z,6.93
2018-06-21T23:31:06.617Z,15.00
2018-06-21T23:33:33.914Z,6.47
2018-06-21T23:36:01.769Z,4.20
2018-06-21T23:38:29.219Z,9.83
2018-06-21T23:40:56.496Z,10.47
2018-06-21T23:43:23.760Z,11.43
2018-06-21T23:45:51.018Z,10.60
2018-06-21T23:48:18.461Z,5.70
2018-06-21T23:50:45.724Z,6.23
2018-06-21T23:53:13.138Z,12.23
2018-06-21T23:55:40.538Z,11.53
2018-06-21T23:58:07.801Z,9.20
